Detall de PIREP

Printer-friendly versionPDF version

[2010/12/11 18:08:00]
Flight IATA:CT2108
Pilot Number:026
Company ICAO:CAT
Aircraft Type:DC85/A
PAX:136
Departing Airport: LEVC
Destination Airport: LEMG
Alternate Airport:LEMD
Online: VATSIM
Route:ASTRO B28 MGA
Flight Level:FL190
No Slew and time accel
No pause
Crash detect
Detect pilot in Cockpit between each 30 and 45 minutes
18:08 Zero fuel Weight: 177839 Lbs, Fuel Weight: 31437 Lbs
18:08 VATSIM:LEVC 111800Z 00000KT CAVOK 12/10 Q1022 NOSIG
18:08 VATSIM:LEMG 111800Z VRB01KT 9999 FEW020 15/12 Q1023 NOSIG
18:09 VOICE CATALONIAN / LEVC HUB ROUTE CT2109
18:09 Parking Brakes off
18:18 Take-off
18:18 Take off Weight: 208186 Lbs
18:18 Wind: 153º @ 002 Knots Heading: 295º
18:18 POS N39º 29´ 39´´ W000º 29´ 41´´
18:18 Flaps:2 at 174 Knots
18:18 Gear Up: 177 Knots
18:19 Flaps:1 at 187 Knots
18:19 Flaps:0 at 184 Knots
18:29 TOC
18:29 Fuel Weight: 26859 Lb
18:33 Wind:150º@031 Knots Heading: 227º Ground Speed: 410 Knots Altitude 19245 ft
18:48 Wind:097º@011 Knots Heading: 225º Ground Speed: 418 Knots Altitude 19225 ft
18:54 TOD
18:54 Fuel Weight: 21158 Lb
19:03 Wind:085º@015 Knots Heading: 326º Ground Speed: 246 Knots Altitude 8261 ft
19:11 Gear Down: 188 Knots
19:11 Flaps:1 at 175 Knots
19:12 Flaps:2 at 167 Knots
19:12 Flaps:3 at 159 Knots
19:13 Flaps:4 at 139 Knots
19:13 Flaps:5 at 143 Knots
19:14 TouchDown:Rate -18 ft/min Speed: 131 Knots
19:14 VATSIM:LEMG 111900Z 00000KT 9999 FEW020 14/11 Q1023 NOSIG
19:14 Land
19:14 Wind:087º@000 Knots
19:14 Heading: 130º
19:14 Flight Duration: 00:56
19:14 Landing Weight: 197645 Lbs
19:14 POS N36º 40´ 34´´ W004º 30´ 04´´
19:23 Parking brakes on
19:23 Block to Block Duration: 01:14
19:23 Final Fuel: 19124 Lbls
19:23 Spent Fuel: 12312 Lbls
19:23 Flight Length: 311 NM
19:23 TOD Land Length: 81 NM

Exportar CSV

Powered by Drupal - Modified by Danger4k